Terminal Aerodrome Forecast
Issued by NWS

Home | Current Version | Previous Version | Text Only | Print | Product List | Glossary On
Versions: 1 2 3 4 5 6 7 8 9 10 11 12 13 14 15
000
FTUS46 KLOX 172300
TAFLGB
TAF
KLGB 172335Z 1800/1824 27012G18KT P6SM SKC
     FM180200 30009KT P6SM SKC
     FM180700 28005KT P6SM SKC
     FM180900 VRB03KT P6SM OVC010
     FM181500 23005KT P6SM OVC015
     FM182100 23007KT P6SM SCT020=

USA.gov is the U.S. government's official web portal to all federal, state and local government web resources and services.